createdAt,value
2023-04-01T00:00:46.299Z,571.90
2023-04-01T00:01:41.399Z,573.87
2023-04-01T00:02:36.615Z,571.41
2023-04-01T00:03:31.926Z,572.39
2023-04-01T00:04:26.694Z,573.37
2023-04-01T00:05:21.821Z,570.43
2023-04-01T00:06:17.054Z,571.90
2023-04-01T00:07:12.370Z,572.88
2023-04-01T00:08:07.529Z,569.46
2023-04-01T00:09:02.539Z,565.59
2023-04-01T00:09:57.802Z,540.38
2023-04-01T00:10:52.897Z,532.19
2023-04-01T00:11:48.033Z,536.90
2023-04-01T00:12:43.130Z,548.83
2023-04-01T00:13:38.271Z,552.01
2023-04-01T00:14:33.222Z,548.38
2023-04-01T00:15:28.519Z,546.14
2023-04-01T00:16:23.667Z,549.29
2023-04-01T00:17:18.942Z,549.74
2023-04-01T00:18:13.888Z,554.31
2023-04-01T00:19:09.031Z,561.31
2023-04-01T00:20:04.011Z,565.11
2023-04-01T00:20:59.305Z,568.97
2023-04-01T00:21:54.399Z,574.36
2023-04-01T00:22:49.439Z,573.87
2023-04-01T00:23:44.853Z,571.90
2023-04-01T00:24:39.780Z,574.86
2023-04-01T00:25:35.074Z,576.84
2023-04-01T00:26:29.913Z,575.85
2023-04-01T00:27:25.138Z,575.35
2023-04-01T00:28:20.219Z,575.85
2023-04-01T00:29:15.342Z,575.35
2023-04-01T00:30:10.525Z,570.43
2023-04-01T00:31:05.797Z,564.16
2023-04-01T00:32:01.030Z,558.02
2023-04-01T00:32:56.085Z,559.89
2023-04-01T00:33:51.330Z,549.29
2023-04-01T00:34:46.234Z,542.14
2023-04-01T00:35:41.439Z,542.58
2023-04-01T00:36:36.560Z,541.26
2023-04-01T00:37:31.843Z,542.58
2023-04-01T00:38:27.002Z,543.47
2023-04-01T00:39:22.246Z,542.14
2023-04-01T00:40:17.262Z,536.90
2023-04-01T00:41:12.405Z,535.18
2023-04-01T00:42:07.555Z,527.14
2023-04-01T00:43:02.841Z,527.56
2023-04-01T00:43:57.823Z,525.48
2023-04-01T00:44:53.005Z,523.83
2023-04-01T00:45:48.031Z,523.83
2023-04-01T00:46:43.180Z,520.56
2023-04-01T00:47:38.437Z,514.14
2023-04-01T00:48:33.765Z,511.77
2023-04-01T00:49:28.607Z,516.12
2023-04-01T00:50:23.913Z,516.12
2023-04-01T00:51:19.046Z,517.33
2023-04-01T00:52:14.178Z,515.33
2023-04-01T00:53:09.204Z,514.53
2023-04-01T00:54:04.359Z,512.16
2023-04-01T00:54:59.474Z,511.77
2023-04-01T00:55:54.649Z,512.95
2023-04-01T00:56:50.036Z,514.14
2023-04-01T00:57:45.107Z,513.34
2023-04-01T00:58:40.243Z,515.73
2023-04-01T00:59:35.381Z,517.33
2023-04-01T01:00:30.369Z,516.53
2023-04-01T01:01:25.719Z,511.77
2023-04-01T01:02:20.756Z,512.16
2023-04-01T01:03:15.796Z,505.18
2023-04-01T01:04:10.941Z,501.00
2023-04-01T01:05:06.092Z,504.79
2023-04-01T01:06:01.202Z,506.71
2023-04-01T01:06:56.344Z,506.33
2023-04-01T01:07:51.626Z,503.65
2023-04-01T01:08:46.703Z,501.38
2023-04-01T01:09:42.072Z,500.25
2023-04-01T01:10:36.993Z,500.25
2023-04-01T01:11:37.114Z,497.64
2023-04-01T01:12:29.438Z,500.25
2023-04-01T01:13:23.706Z,502.51
2023-04-01T01:14:18.828Z,505.56
2023-04-01T01:15:13.857Z,509.42
2023-04-01T01:16:09.026Z,510.59
2023-04-01T01:17:04.137Z,512.55
2023-04-01T01:17:59.634Z,512.55
2023-04-01T01:18:54.588Z,513.34
2023-04-01T01:19:50.015Z,511.38
2023-04-01T01:20:45.011Z,515.33
2023-04-01T01:21:40.152Z,516.92
2023-04-01T01:22:35.244Z,516.53
2023-04-01T01:23:30.399Z,521.78
2023-04-01T01:24:25.531Z,522.60
2023-04-01T01:25:20.747Z,527.14
2023-04-01T01:26:15.706Z,525.48
2023-04-01T01:27:10.998Z,532.19
2023-04-01T01:28:06.161Z,525.89
2023-04-01T01:29:01.283Z,525.89
2023-04-01T01:29:56.400Z,531.77
2023-04-01T01:30:51.643Z,530.07
2023-04-01T01:31:46.708Z,525.07
2023-04-01T01:32:41.853Z,528.39
2023-04-01T01:33:36.830Z,530.50
2023-04-01T01:34:32.205Z,531.34
2023-04-01T01:35:27.264Z,533.04
2023-04-01T01:36:22.798Z,536.47
2023-04-01T01:37:17.549Z,534.32
2023-04-01T01:38:12.561Z,535.18
2023-04-01T01:39:07.827Z,533.47
2023-04-01T01:40:02.983Z,537.77
2023-04-01T01:40:58.273Z,540.38
2023-04-01T01:41:53.290Z,536.04
2023-04-01T01:42:48.288Z,530.92
2023-04-01T01:43:43.328Z,529.65
2023-04-01T01:44:38.381Z,529.65
2023-04-01T01:45:33.669Z,527.56
2023-04-01T01:46:28.570Z,531.77
2023-04-01T01:47:23.615Z,533.47
2023-04-01T01:48:18.613Z,534.32
2023-04-01T01:49:13.760Z,538.64
2023-04-01T01:50:08.731Z,542.58
2023-04-01T01:51:03.820Z,543.02
2023-04-01T01:51:58.894Z,539.95
2023-04-01T01:52:54.029Z,543.47
2023-04-01T01:53:49.009Z,543.02
2023-04-01T01:54:44.039Z,543.91
2023-04-01T01:55:39.081Z,545.24
2023-04-01T01:56:34.112Z,546.59
2023-04-01T01:57:29.235Z,548.38
2023-04-01T01:58:24.133Z,548.38
2023-04-01T01:59:19.145Z,552.93
2023-04-01T02:00:14.286Z,552.01
2023-04-01T02:01:09.332Z,552.01
2023-04-01T02:02:04.411Z,555.69
2023-04-01T02:02:59.460Z,557.55
2023-04-01T02:03:54.453Z,557.55
2023-04-01T02:04:49.479Z,555.23
2023-04-01T02:05:44.712Z,557.55
2023-04-01T02:06:39.569Z,559.89
2023-04-01T02:07:34.622Z,561.78
2023-04-01T02:08:29.721Z,555.69
2023-04-01T02:09:24.866Z,558.49
2023-04-01T02:10:20.032Z,557.09
2023-04-01T02:11:14.947Z,559.42
2023-04-01T02:12:09.957Z,561.31
2023-04-01T02:13:05.079Z,559.89
2023-04-01T02:14:00.346Z,558.96
2023-04-01T02:14:55.522Z,555.23
2023-04-01T02:15:50.882Z,551.10
2023-04-01T02:16:45.907Z,549.29
2023-04-01T02:17:41.262Z,549.29
2023-04-01T02:18:36.346Z,550.19
2023-04-01T02:19:31.477Z,553.39
2023-04-01T02:20:26.637Z,550.65
2023-04-01T02:21:21.987Z,554.31
2023-04-01T02:22:17.001Z,553.85
2023-04-01T02:23:12.185Z,557.55
2023-04-01T02:24:07.345Z,559.89
2023-04-01T02:25:02.427Z,559.89
2023-04-01T02:25:57.872Z,566.55
2023-04-01T02:26:52.775Z,568.00
2023-04-01T02:27:47.802Z,564.16
2023-04-01T02:28:42.965Z,566.07
2023-04-01T02:29:38.134Z,571.41
2023-04-01T02:30:33.429Z,573.87
2023-04-01T02:31:28.508Z,570.92
2023-04-01T02:32:23.781Z,575.85
2023-04-01T02:33:18.844Z,573.87
2023-04-01T02:34:13.838Z,577.84
2023-04-01T02:35:09.106Z,575.85
2023-04-01T02:36:04.158Z,580.36
2023-04-01T02:36:59.199Z,582.39
2023-04-01T02:37:54.325Z,585.97
2023-04-01T02:38:49.577Z,587.52
2023-04-01T02:39:44.544Z,589.60
2023-04-01T02:40:39.804Z,591.69
2023-04-01T02:41:34.928Z,597.52
2023-04-01T02:42:30.301Z,601.84
2023-04-01T02:43:25.302Z,601.84
2023-04-01T02:44:20.583Z,602.92
2023-04-01T02:45:15.593Z,601.29
2023-04-01T02:46:10.878Z,601.84
2023-04-01T02:47:06.059Z,605.11
2023-04-01T02:48:01.236Z,610.09
2023-04-01T02:48:56.240Z,604.56
2023-04-01T02:49:51.421Z,608.42
2023-04-01T02:50:46.667Z,606.21
2023-04-01T02:51:42.702Z,607.87
2023-04-01T02:52:37.717Z,605.66
2023-04-01T02:53:32.864Z,602.92
2023-04-01T02:54:29.256Z,604.02
2023-04-01T02:55:24.308Z,605.11
2023-04-01T02:56:20.039Z,606.21
2023-04-01T02:57:15.281Z,609.54
2023-04-01T02:58:10.410Z,608.42
2023-04-01T02:59:06.300Z,610.09
2023-04-01T03:00:01.458Z,614.59
2023-04-01T03:00:57.621Z,614.03
2023-04-01T03:01:52.817Z,612.90
2023-04-01T03:02:48.014Z,617.44
2023-04-01T03:03:43.994Z,618.58
2023-04-01T03:04:39.141Z,622.63
2023-04-01T03:05:34.452Z,622.05
2023-04-01T03:06:30.655Z,623.79
2023-04-01T03:07:25.805Z,612.90
2023-04-01T03:08:21.574Z,618.58
2023-04-01T03:09:16.705Z,625.55
2023-04-01T03:10:12.165Z,627.31
2023-04-01T03:11:07.860Z,632.67
2023-04-01T03:12:03.041Z,623.21
2023-04-01T03:12:58.759Z,619.16
2023-04-01T03:13:54.059Z,618.01
2023-04-01T03:14:49.328Z,624.38
2023-04-01T03:15:45.323Z,639.34
2023-04-01T03:16:40.536Z,646.78
2023-04-01T03:17:35.586Z,653.12
2023-04-01T03:18:32.108Z,666.83
2023-04-01T03:19:27.302Z,670.86
2023-04-01T03:20:23.105Z,680.44
2023-04-01T03:21:18.506Z,681.83
2023-04-01T03:22:13.697Z,683.23
2023-04-01T03:23:09.262Z,677.68
2023-04-01T03:24:04.674Z,681.83
2023-04-01T03:25:00.358Z,686.75
2023-04-01T03:25:55.477Z,687.46
2023-04-01T03:26:50.833Z,693.17
2023-04-01T03:27:46.765Z,694.62
2023-04-01T03:28:41.829Z,693.90
2023-04-01T03:29:37.154Z,698.26
2023-04-01T03:30:33.389Z,698.26
2023-04-01T03:31:28.627Z,695.34
2023-04-01T03:32:24.475Z,704.15
2023-04-01T03:33:19.654Z,710.15
2023-04-01T03:34:14.943Z,716.26
2023-04-01T03:35:10.763Z,713.19
2023-04-01T03:36:05.994Z,721.68
2023-04-01T03:37:01.811Z,720.90
2023-04-01T03:37:56.977Z,718.57
2023-04-01T03:38:52.244Z,708.64
2023-04-01T03:39:48.082Z,707.14
2023-04-01T03:40:43.226Z,699.72
2023-04-01T03:41:38.625Z,693.17
2023-04-01T03:42:34.679Z,693.90
2023-04-01T03:43:29.837Z,687.46
2023-04-01T03:44:25.569Z,688.88
2023-04-01T03:45:20.710Z,677.68
2023-04-01T03:46:16.090Z,619.73
2023-04-01T03:47:11.729Z,614.03
2023-04-01T03:48:06.950Z,613.46
2023-04-01T03:49:02.717Z,611.21
2023-04-01T03:49:57.894Z,611.21
2023-04-01T03:50:53.347Z,610.65
2023-04-01T03:51:48.364Z,614.59
2023-04-01T03:52:43.388Z,588.04
2023-04-01T03:53:40.168Z,567.52
2023-04-01T03:54:35.368Z,574.86
2023-04-01T03:55:31.667Z,578.35
2023-04-01T03:56:26.273Z,582.39
2023-04-01T03:57:21.520Z,570.92
2023-04-01T03:58:17.637Z,576.84
2023-04-01T03:59:12.835Z,588.04
2023-04-01T04:00:08.175Z,595.92
2023-04-01T04:01:04.221Z,588.04
2023-04-01T04:01:59.426Z,582.90
2023-04-01T04:02:55.285Z,590.12
2023-04-01T04:03:50.357Z,592.21
2023-04-01T04:04:45.823Z,589.60
2023-04-01T04:05:41.449Z,583.92
2023-04-01T04:06:36.643Z,589.08
2023-04-01T04:07:32.503Z,588.04
2023-04-01T04:08:27.789Z,592.21
2023-04-01T04:09:22.926Z,599.67
2023-04-01T04:10:18.038Z,593.27
2023-04-01T04:11:13.217Z,592.21
2023-04-01T04:12:08.846Z,587.00
2023-04-01T04:13:03.969Z,592.21
2023-04-01T04:13:59.033Z,590.64
2023-04-01T04:14:54.215Z,600.21
2023-04-01T04:15:50.642Z,591.16
2023-04-01T04:16:45.770Z,588.04
2023-04-01T04:17:41.139Z,587.52
2023-04-01T04:18:40.271Z,584.94
2023-04-01T04:19:35.442Z,586.48
2023-04-01T04:20:31.240Z,592.21
2023-04-01T04:21:26.166Z,593.27
2023-04-01T04:22:21.196Z,595.39
2023-04-01T04:23:16.268Z,589.60
2023-04-01T04:24:11.308Z,588.04
2023-04-01T04:25:06.461Z,592.74
2023-04-01T04:26:01.529Z,590.12
2023-04-01T04:26:56.585Z,588.04
2023-04-01T04:27:51.620Z,576.84
2023-04-01T04:28:46.665Z,572.88
2023-04-01T04:29:41.714Z,568.97
2023-04-01T04:30:37.079Z,568.00
2023-04-01T04:31:31.990Z,570.92
2023-04-01T04:32:27.567Z,577.84
2023-04-01T04:33:21.981Z,575.35
2023-04-01T04:34:17.057Z,577.34
2023-04-01T04:35:12.079Z,573.87
2023-04-01T04:36:07.109Z,579.85
2023-04-01T04:37:02.109Z,578.85
2023-04-01T04:37:57.174Z,574.86
2023-04-01T04:38:52.185Z,565.11
2023-04-01T04:39:47.231Z,558.02
2023-04-01T04:40:42.247Z,562.25
2023-04-01T04:41:37.674Z,569.94
2023-04-01T04:42:33.677Z,572.88
2023-04-01T04:43:28.730Z,572.39
2023-04-01T04:44:23.809Z,577.34
2023-04-01T04:45:19.041Z,578.85
2023-04-01T04:46:13.917Z,583.92
2023-04-01T04:47:08.992Z,588.55
2023-04-01T04:48:04.022Z,579.85
2023-04-01T04:48:59.021Z,553.85
2023-04-01T04:49:54.102Z,540.38
2023-04-01T04:50:49.230Z,550.19
2023-04-01T04:51:44.174Z,546.14
2023-04-01T04:52:39.317Z,550.19
2023-04-01T04:53:34.551Z,547.93
2023-04-01T04:54:29.733Z,556.16
2023-04-01T04:55:24.846Z,564.63
2023-04-01T04:56:20.619Z,562.73
2023-04-01T04:57:15.904Z,568.97
2023-04-01T04:58:11.851Z,570.43
2023-04-01T04:59:06.927Z,572.39
2023-04-01T05:00:02.549Z,577.84
2023-04-01T05:00:58.305Z,581.88
2023-04-01T05:01:53.630Z,588.55
2023-04-01T05:02:48.970Z,586.48
2023-04-01T05:03:45.386Z,591.69
2023-04-01T05:04:40.593Z,586.48
2023-04-01T05:05:36.376Z,580.36
2023-04-01T05:06:31.565Z,581.37
2023-04-01T05:07:26.889Z,579.85
2023-04-01T05:08:22.772Z,580.86
2023-04-01T05:09:18.123Z,574.36
2023-04-01T05:10:14.234Z,578.85
2023-04-01T05:11:09.817Z,585.97
2023-04-01T05:12:04.427Z,589.60
2023-04-01T05:13:00.356Z,593.27
2023-04-01T05:13:55.684Z,592.21
2023-04-01T05:14:51.253Z,590.64
2023-04-01T05:15:47.145Z,588.04
2023-04-01T05:16:42.674Z,586.48
2023-04-01T05:17:38.441Z,596.99
2023-04-01T05:18:33.736Z,594.86
2023-04-01T05:19:29.049Z,592.74
2023-04-01T05:20:24.724Z,595.92
2023-04-01T05:21:20.074Z,602.38
2023-04-01T05:22:15.863Z,593.80
2023-04-01T05:23:11.265Z,578.85
2023-04-01T05:24:06.660Z,568.00
2023-04-01T05:25:02.301Z,572.39
2023-04-01T05:25:57.744Z,569.94
2023-04-01T05:26:53.870Z,550.19
2023-04-01T05:27:49.385Z,559.42
2023-04-01T05:28:44.539Z,566.07
2023-04-01T05:29:40.610Z,576.35
2023-04-01T05:30:35.804Z,582.90
2023-04-01T05:31:31.185Z,588.04
2023-04-01T05:32:27.262Z,592.21
2023-04-01T05:33:22.662Z,594.33
2023-04-01T05:34:18.315Z,576.35
2023-04-01T05:35:13.701Z,581.37
2023-04-01T05:36:09.111Z,584.43
2023-04-01T05:37:04.911Z,517.73
2023-04-01T05:38:00.164Z,512.55
2023-04-01T05:38:55.674Z,528.39
2023-04-01T05:39:51.764Z,549.74
2023-04-01T05:40:47.275Z,551.10
2023-04-01T05:41:42.488Z,553.85
2023-04-01T05:42:38.485Z,565.11
2023-04-01T05:43:33.607Z,570.92
2023-04-01T05:44:29.035Z,575.85
2023-04-01T05:45:24.790Z,577.84
2023-04-01T05:46:20.016Z,581.88
2023-04-01T05:47:15.427Z,589.60
2023-04-01T05:48:11.190Z,582.90
2023-04-01T05:49:06.483Z,579.85
2023-04-01T05:50:01.927Z,583.92
2023-04-01T05:50:58.205Z,501.76
2023-04-01T05:51:53.489Z,299.47
2023-04-01T05:52:49.281Z,338.39
2023-04-01T05:53:44.708Z,383.68
2023-04-01T05:54:40.008Z,418.86
2023-04-01T05:55:35.989Z,443.08
2023-04-01T05:56:31.072Z,454.56
2023-04-01T05:57:27.200Z,468.28
2023-04-01T05:58:22.364Z,483.56
2023-04-01T05:59:17.867Z,491.77
2023-04-01T06:00:13.258Z,503.65
2023-04-01T06:01:11.443Z,510.98
2023-04-01T06:02:03.774Z,504.79
2023-04-01T06:02:58.994Z,504.41
2023-04-01T06:03:54.098Z,503.65
2023-04-01T06:04:54.306Z,507.87
2023-04-01T06:05:49.695Z,509.81
2023-04-01T06:06:45.044Z,512.16
2023-04-01T06:07:40.439Z,518.13
2023-04-01T06:08:37.312Z,516.12
2023-04-01T06:09:32.453Z,515.73
2023-04-01T06:10:28.248Z,518.13
2023-04-01T06:11:23.328Z,499.13
2023-04-01T06:12:18.453Z,491.04
2023-04-01T06:13:13.429Z,495.05
2023-04-01T06:14:08.598Z,489.60
2023-04-01T06:15:03.558Z,489.60
2023-04-01T06:15:58.599Z,485.32
2023-04-01T06:16:53.568Z,488.52
2023-04-01T06:17:48.631Z,470.26
2023-04-01T06:18:43.769Z,462.76
2023-04-01T06:19:38.661Z,468.94
2023-04-01T06:20:33.725Z,473.27
2023-04-01T06:21:28.788Z,466.32
2023-04-01T06:22:23.803Z,463.72
2023-04-01T06:23:18.930Z,470.26
2023-04-01T06:24:13.951Z,473.27
2023-04-01T06:25:08.947Z,480.43
2023-04-01T06:26:03.975Z,482.51
2023-04-01T06:26:59.006Z,488.88
2023-04-01T06:27:54.002Z,493.58
2023-04-01T06:28:49.159Z,493.22
2023-04-01T06:29:44.198Z,491.77
2023-04-01T06:30:39.392Z,488.88
2023-04-01T06:31:34.431Z,500.25
2023-04-01T06:32:29.557Z,497.64
2023-04-01T06:33:24.574Z,506.71
2023-04-01T06:34:19.796Z,519.34
2023-04-01T06:35:14.797Z,527.98
2023-04-01T06:36:09.906Z,529.23
2023-04-01T06:37:04.982Z,492.86
2023-04-01T06:38:00.283Z,505.94
2023-04-01T06:38:55.712Z,511.38
2023-04-01T06:39:51.100Z,506.33
2023-04-01T06:40:46.337Z,514.53
2023-04-01T06:41:41.927Z,528.81
2023-04-01T06:42:37.312Z,528.39
2023-04-01T06:43:32.820Z,544.80
2023-04-01T06:44:28.184Z,553.39
2023-04-01T06:45:23.487Z,570.92
2023-04-01T06:46:18.521Z,576.84
2023-04-01T06:47:13.664Z,598.06
2023-04-01T06:48:08.662Z,619.73
2023-04-01T06:49:07.257Z,636.90
2023-04-01T06:50:02.663Z,641.19
2023-04-01T06:50:57.861Z,634.47
2023-04-01T06:51:53.300Z,642.42
2023-04-01T06:52:48.601Z,662.20
2023-04-01T06:53:44.101Z,681.83
2023-04-01T06:54:39.714Z,688.17
2023-04-01T06:55:34.975Z,690.30
2023-04-01T06:56:30.376Z,704.15
2023-04-01T06:57:25.547Z,727.98
2023-04-01T06:58:20.983Z,749.16
2023-04-01T06:59:16.157Z,764.60
2023-04-01T07:00:11.246Z,769.90
2023-04-01T07:01:06.124Z,773.02
2023-04-01T07:02:01.223Z,788.08
2023-04-01T07:02:56.264Z,789.94
2023-04-01T07:03:51.342Z,782.53
2023-04-01T07:04:46.643Z,799.40
2023-04-01T07:05:41.362Z,810.57
2023-04-01T07:06:36.464Z,827.14
2023-04-01T07:07:31.505Z,828.68
2023-04-01T07:08:26.521Z,810.57
2023-04-01T07:09:21.545Z,816.02
2023-04-01T07:10:16.529Z,826.11
2023-04-01T07:11:11.575Z,818.52
2023-04-01T07:12:06.794Z,818.52
2023-04-01T07:13:02.338Z,813.53
2023-04-01T07:13:57.513Z,827.14
2023-04-01T07:14:53.019Z,807.13
2023-04-01T07:15:48.592Z,784.37
2023-04-01T07:16:43.792Z,777.52
2023-04-01T07:17:39.218Z,751.27
2023-04-01T07:18:34.604Z,733.59
2023-04-01T07:19:29.836Z,712.43
2023-04-01T07:20:26.316Z,695.34
2023-04-01T07:21:21.340Z,686.75
2023-04-01T07:22:16.464Z,657.63
2023-04-01T07:23:11.398Z,608.42
2023-04-01T07:24:06.496Z,639.34
2023-04-01T07:25:01.903Z,668.84
2023-04-01T07:25:56.763Z,705.64
2023-04-01T07:26:51.803Z,720.12
2023-04-01T07:27:48.636Z,720.12
2023-04-01T07:28:43.705Z,737.65
2023-04-01T07:29:38.821Z,739.28
2023-04-01T07:30:33.962Z,715.49
2023-04-01T07:31:28.976Z,728.78
2023-04-01T07:32:23.975Z,739.28
2023-04-01T07:33:19.030Z,753.39
2023-04-01T07:34:14.070Z,759.82
2023-04-01T07:35:09.155Z,773.47
2023-04-01T07:36:04.387Z,753.81
2023-04-01T07:36:59.465Z,705.64
2023-04-01T07:37:54.511Z,679.06
2023-04-01T07:38:49.655Z,695.34
2023-04-01T07:39:44.574Z,717.80
2023-04-01T07:40:39.853Z,727.19
2023-04-01T07:41:35.012Z,691.02
2023-04-01T07:42:30.457Z,712.43
2023-04-01T07:43:25.675Z,737.65
2023-04-01T07:44:20.989Z,729.58
2023-04-01T07:45:16.320Z,735.21
2023-04-01T07:46:11.794Z,684.63
2023-04-01T07:47:06.812Z,658.28
2023-04-01T07:48:01.975Z,666.83
2023-04-01T07:48:57.023Z,670.18
2023-04-01T07:49:52.047Z,654.40
2023-04-01T07:50:48.805Z,641.19
2023-04-01T07:51:42.170Z,656.98
2023-04-01T07:52:37.222Z,663.52
2023-04-01T07:53:32.204Z,669.51
2023-04-01T07:54:27.347Z,670.18
2023-04-01T07:55:22.335Z,683.93
2023-04-01T07:56:17.397Z,698.99
2023-04-01T07:57:15.488Z,718.57
2023-04-01T07:58:10.512Z,726.40
2023-04-01T07:59:05.670Z,724.03
2023-04-01T08:00:00.752Z,717.80
2023-04-01T08:00:55.769Z,704.90
2023-04-01T08:01:50.843Z,681.83
2023-04-01T08:02:45.920Z,670.86
2023-04-01T08:03:41.074Z,671.53
2023-04-01T08:04:36.039Z,652.48
2023-04-01T08:05:31.420Z,656.33
2023-04-01T08:06:26.098Z,661.54
2023-04-01T08:07:21.249Z,670.86
2023-04-01T08:08:16.251Z,656.98
2023-04-01T08:09:11.402Z,652.48
2023-04-01T08:10:06.426Z,668.17
2023-04-01T08:11:01.440Z,682.53
2023-04-01T08:12:00.329Z,687.46
2023-04-01T08:12:55.484Z,678.36
2023-04-01T08:13:50.505Z,684.63
2023-04-01T08:14:45.794Z,694.62
2023-04-01T08:15:40.598Z,707.14
2023-04-01T08:16:35.896Z,712.43
2023-04-01T08:17:30.796Z,716.26
2023-04-01T08:18:25.857Z,676.99
2023-04-01T08:19:20.986Z,683.23
2023-04-01T08:20:16.172Z,688.17
2023-04-01T08:21:12.589Z,708.64
2023-04-01T08:22:07.930Z,724.03
2023-04-01T08:23:03.892Z,734.40
2023-04-01T08:23:59.116Z,727.98
2023-04-01T08:24:54.441Z,749.16
2023-04-01T08:25:50.410Z,770.78
2023-04-01T08:26:45.841Z,775.26
2023-04-01T08:27:41.853Z,782.53
2023-04-01T08:28:37.030Z,786.22
2023-04-01T08:29:32.606Z,782.99
2023-04-01T08:30:28.488Z,789.01
2023-04-01T08:31:23.899Z,772.57
2023-04-01T08:32:19.412Z,788.08
2023-04-01T08:33:15.569Z,799.88
2023-04-01T08:34:10.697Z,803.73
2023-04-01T08:35:06.581Z,795.59
2023-04-01T08:36:01.896Z,820.03
2023-04-01T08:36:57.536Z,813.03
2023-04-01T08:37:53.354Z,797.97
2023-04-01T08:38:48.808Z,830.22
2023-04-01T08:39:44.640Z,844.94
2023-04-01T08:40:40.075Z,857.97
2023-04-01T08:41:35.476Z,856.32
2023-04-01T08:42:31.133Z,819.52
2023-04-01T08:43:26.621Z,797.97
2023-04-01T08:44:22.001Z,825.09
2023-04-01T08:45:18.333Z,835.42
2023-04-01T08:46:13.856Z,843.34
2023-04-01T08:47:09.660Z,803.73
2023-04-01T08:48:05.163Z,808.60
2023-04-01T08:49:00.534Z,797.97
2023-04-01T08:49:56.565Z,766.80
2023-04-01T08:50:51.793Z,775.71
2023-04-01T08:51:47.563Z,773.02
2023-04-01T08:52:42.866Z,765.48
2023-04-01T08:53:38.344Z,696.07
2023-04-01T08:54:34.043Z,607.32
2023-04-01T08:55:29.402Z,624.38
2023-04-01T08:56:24.657Z,623.21
2023-04-01T08:57:21.383Z,644.28
2023-04-01T08:58:16.621Z,640.57
2023-04-01T08:59:12.707Z,619.16
2023-04-01T09:00:07.974Z,627.31
2023-04-01T09:01:03.116Z,638.73
2023-04-01T09:01:59.109Z,647.41
2023-04-01T09:02:54.539Z,646.78
2023-04-01T09:03:50.563Z,643.04
2023-04-01T09:04:45.745Z,652.48
2023-04-01T09:05:41.271Z,649.93
2023-04-01T09:06:37.163Z,588.04
2023-04-01T09:07:32.560Z,558.49
2023-04-01T09:08:28.136Z,578.85
2023-04-01T09:09:23.575Z,593.80
2023-04-01T09:10:19.388Z,605.11
2023-04-01T09:11:14.625Z,605.11
2023-04-01T09:12:10.200Z,612.90
2023-04-01T09:13:05.809Z,606.21
2023-04-01T09:14:01.199Z,594.86
2023-04-01T09:14:57.042Z,555.23
2023-04-01T09:15:52.539Z,553.85
2023-04-01T09:16:47.720Z,559.89
2023-04-01T09:17:43.703Z,552.01
2023-04-01T09:18:38.875Z,549.29
2023-04-01T09:19:34.451Z,531.77
2023-04-01T09:20:30.482Z,525.48
2023-04-01T09:21:26.045Z,529.65
2023-04-01T09:22:21.848Z,514.53
2023-04-01T09:23:17.231Z,522.60
2023-04-01T09:24:12.820Z,536.47
2023-04-01T09:25:08.389Z,531.77
2023-04-01T09:26:03.792Z,538.64
2023-04-01T09:26:59.753Z,549.74
2023-04-01T09:27:54.445Z,557.55
2023-04-01T09:28:49.879Z,559.42
2023-04-01T09:29:44.886Z,574.86
2023-04-01T09:30:39.938Z,561.31
2023-04-01T09:31:35.004Z,558.02
2023-04-01T09:32:30.127Z,544.80
2023-04-01T09:33:25.115Z,551.56
2023-04-01T09:34:20.169Z,543.02
2023-04-01T09:35:15.310Z,552.01
2023-04-01T09:36:10.395Z,543.47
2023-04-01T09:37:05.394Z,563.68
2023-04-01T09:38:00.724Z,585.97
2023-04-01T09:38:56.118Z,601.29
2023-04-01T09:39:51.330Z,611.77
2023-04-01T09:40:46.217Z,620.89
2023-04-01T09:41:41.290Z,643.66
2023-04-01T09:42:36.297Z,657.63
2023-04-01T09:43:31.342Z,646.78
2023-04-01T09:44:30.084Z,655.69
2023-04-01T09:45:25.004Z,658.28
2023-04-01T09:46:20.032Z,655.04
2023-04-01T09:47:15.014Z,656.33
2023-04-01T09:48:10.107Z,648.04
2023-04-01T09:49:05.134Z,648.67
2023-04-01T09:50:00.185Z,572.39
2023-04-01T09:50:55.416Z,539.95
2023-04-01T09:51:50.569Z,559.89
2023-04-01T09:52:46.576Z,557.55
2023-04-01T09:53:41.148Z,562.25
2023-04-01T09:54:36.365Z,558.02
2023-04-01T09:55:31.482Z,567.52
2023-04-01T09:56:31.275Z,567.03
2023-04-01T09:57:25.713Z,566.55
2023-04-01T09:58:20.962Z,579.85
2023-04-01T09:59:16.464Z,578.35
2023-04-01T10:00:11.722Z,570.43
2023-04-01T10:01:07.037Z,573.87
2023-04-01T10:02:02.384Z,576.84
2023-04-01T10:02:57.732Z,577.34
2023-04-01T10:03:53.153Z,563.20
2023-04-01T10:04:48.455Z,555.69
2023-04-01T10:05:43.998Z,552.47
2023-04-01T10:06:39.477Z,547.48
2023-04-01T10:07:34.711Z,553.85
2023-04-01T10:08:30.049Z,556.62
2023-04-01T10:09:25.379Z,569.94
2023-04-01T10:10:20.745Z,574.86
2023-04-01T10:11:16.047Z,571.90
2023-04-01T10:12:11.459Z,575.85
2023-04-01T10:13:06.503Z,552.93
2023-04-01T10:14:01.621Z,556.62
2023-04-01T10:14:56.865Z,548.83
2023-04-01T10:15:51.757Z,547.48
2023-04-01T10:16:46.789Z,544.80
2023-04-01T10:17:41.807Z,549.74
2023-04-01T10:18:36.869Z,559.42
2023-04-01T10:20:57.999Z,557.55
2023-04-01T10:21:53.140Z,509.42
2023-04-01T10:22:48.496Z,491.77
2023-04-01T10:23:43.944Z,496.16
2023-04-01T10:24:39.185Z,512.16
2023-04-01T10:25:34.996Z,532.61
2023-04-01T10:26:29.921Z,545.69
2023-04-01T10:27:25.431Z,553.85
2023-04-01T10:28:20.683Z,566.55
2023-04-01T10:29:16.198Z,571.90
2023-04-01T10:30:11.502Z,574.36
2023-04-01T10:31:07.015Z,559.42
2023-04-01T10:32:02.293Z,573.87
2023-04-01T10:32:57.606Z,559.89
2023-04-01T10:33:53.069Z,578.85
2023-04-01T10:34:48.396Z,589.08
2023-04-01T10:35:44.007Z,595.92
2023-04-01T10:36:39.245Z,594.33
2023-04-01T10:37:34.708Z,594.33
2023-04-01T10:38:30.203Z,607.32
2023-04-01T10:39:25.373Z,605.11
2023-04-01T10:40:20.876Z,609.54
2023-04-01T10:41:16.450Z,600.75
2023-04-01T10:42:11.857Z,599.67
2023-04-01T10:43:07.212Z,600.75
2023-04-01T10:44:02.536Z,582.39
2023-04-01T10:44:57.918Z,590.12
2023-04-01T10:45:53.347Z,601.29
2023-04-01T10:46:48.510Z,536.90
2023-04-01T10:47:44.078Z,538.20
2023-04-01T10:48:39.446Z,543.02
2023-04-01T10:49:34.831Z,527.56
2023-04-01T10:50:30.256Z,521.37
2023-04-01T10:51:25.950Z,524.24
2023-04-01T10:52:21.178Z,537.34
2023-04-01T10:53:16.534Z,533.47
2023-04-01T10:54:12.016Z,529.65
2023-04-01T10:55:07.367Z,530.07
2023-04-01T10:56:02.844Z,536.04
2023-04-01T10:56:58.210Z,529.23
2023-04-01T10:57:53.726Z,515.33
2023-04-01T10:58:49.049Z,518.94
2023-04-01T10:59:44.399Z,524.24
2023-04-01T11:00:39.863Z,536.47
2023-04-01T11:01:35.189Z,545.24
2023-04-01T11:02:30.762Z,551.56
2023-04-01T11:03:26.087Z,558.02
2023-04-01T11:04:21.402Z,501.38
2023-04-01T11:05:18.169Z,482.51
2023-04-01T11:06:11.979Z,465.34
2023-04-01T11:07:07.316Z,475.97
2023-04-01T11:08:06.438Z,509.42
2023-04-01T11:08:58.172Z,532.61
2023-04-01T11:09:53.593Z,552.47
2023-04-01T11:10:48.995Z,558.02
2023-04-01T11:11:44.592Z,566.07
2023-04-01T11:12:39.994Z,558.49
2023-04-01T11:13:35.323Z,507.48
2023-04-01T11:14:30.644Z,492.86
2023-04-01T11:15:25.912Z,505.56
2023-04-01T11:16:21.486Z,522.19
2023-04-01T11:17:16.654Z,514.53
2023-04-01T11:18:12.499Z,512.55
2023-04-01T11:19:07.653Z,507.10
2023-04-01T11:20:03.102Z,506.71
2023-04-01T11:20:58.369Z,502.13
2023-04-01T11:21:53.786Z,499.13
2023-04-01T11:22:49.121Z,511.38
2023-04-01T11:23:52.010Z,505.94
2023-04-01T11:24:40.945Z,491.04
2023-04-01T11:25:35.320Z,482.51
2023-04-01T11:26:30.494Z,458.30
2023-04-01T11:27:25.973Z,451.48
2023-04-01T11:28:21.301Z,452.40
2023-04-01T11:29:16.876Z,453.32
2023-04-01T11:30:12.184Z,449.35
2023-04-01T11:31:07.706Z,450.26
2023-04-01T11:32:03.042Z,448.14